Terminal Aerodrome Forecast
Issued by NWS

Home | Current Version | Previous Version | Text Only | Print | Product List | Glossary On
Versions: 1 2 3 4 5 6 7 8 9 10 11 12 13 14 15 16 17 18 19 20 21
000
FTUS45 KTFX 201700
TAFHVR
TAF
KHVR 201720Z 2018/2118 23016G23KT P6SM FEW100 BKN150
     FM210700 19008KT P6SM VCSH SCT040 BKN080
     FM211500 22014G20KT P6SM SCT100 OVC150=

USA.gov is the U.S. government's official web portal to all federal, state and local government web resources and services.